Aviation Digital Data Service (ADDS)

Output produced by METARs form (1818 UTC 18 April 2019)
found at http://www.aviationweather.gov/metar/data/
 
Forecast for: LFSI (ST. DIZIER/ROBIN, FR)
Text: TAF LFSI 181400Z 1815/1915 11010KT CAVOK
Forecast period: 1500 UTC 18 April 2019 to 1500 UTC 19 April 2019
Forecast type: FROM: standard forecast or significant change
Winds: from the ESE (110 degrees) at 12 MPH (10 knots; 5.1 m/s)
Visibility: 6 or more miles 10+ km)
Ceiling: unknown
Clouds: missing
Weather: NSW  (no significant weather)
Text: TEMPO 1910/1915 4000 SHRA BKN035TCU SCT060
Forecast period: 1000 to 1500 UTC 19 April 2019
Forecast type: TEMPORARY: The following changes expected for less than half the time period
Visibility: 2.49 miles (4.01 km)
Ceiling: 3500 feet AGL
Clouds: broken clouds at 3500 feet AGL
scattered clouds at 6000 feet AGL
Weather: SHRA  (rain showers)
Text: PROB40
Forecast period: 1100 to 1500 UTC 19 April 2019
Forecast type: TEMPORARY: The following changes expected for less than half the time period
Visibility: missing
Ceiling: 3500 feet AGL
Clouds: broken clouds at 3500 feet AGL
Weather: TSRA  (rain associated with thunderstorm(s))